Relevés horaires Koksijde (Belgique)


Relevés horaires à Koksijde - Jeudi 11 Févr. 2016
Heure UTC1 Température [°C] Vent [km/h] Hum. [%] Pres.4 [hPa] Visi. [Km] Nébu. [octa] Préc.5 [mm] Cond.
2m. Res. Ros. Dir.2 Vit. Moy. Raf.3
23:00 2.2 0.7 1.3 S 5.6 5.6 5.6 94 1003.5(-1.2/3h) 9 3/8 -- --
22:00 2.6 2.6 1.6 S 3.7 5.6 7.4 93 1004(-0.9/3h) 9 3/8 -- --
21:00 3.2 3.2 1.9 S 3.7 5.6 5.6 91 1004.6(-0.1/3h) 9 7/8 -- --
20:00 3.0 3.0 2.1 NNO 1.9 5.6 5.6 94 1004.7(0.2/3h) 9 6/8 -- --
19:00 3.2 3.2 2.1 S 3.7 3.7 5.6 92 1005(0.3/3h) 8 3/8 -- --
18:00 4.2 4.2 2.6 SSO 3.7 5.6 7.4 89 1004.7(0.0/3h) 11 4/8 0/0h
--
17:00 5.9 4.9 3.1 SSO 5.6 5.6 7.4 82 1004.7(-0.1/3h) 20 7/8 -- --
16:00 6.5 5.6 3.0 SSO 5.6 5.6 7.4 78 1004.6(-0.4/3h) 20 7/8 -- --
15:00 6.9 6.9 2.9 SSO 3.7 5.6 7.4 76 1004.7(-0.6/3h) 20 7/8 -- --
14:00 8.3 8.3 3.2 SSO 3.7 5.6 7.4 70 1004.7(-1.0/3h) 20 6/8 -- --
13:00 7.4 6.6 4.3 SSO 5.6 5.6 7.4 81 1005(-0.5/3h) 20 6/8 -- --
12:00 6.1 6.1 3.8 SO 3.7 5.6 7.4 85 1005.3(0.0/3h) 20 6/8 0/0h
--
11:00 4.6 3.4 3.4 SSO 5.6 5.6 7.4 92 1005.7(0.3/3h) 15 7/8 -- --
10:00 3.2 1.8 2.5 SSO 5.6 5.6 7.4 95 1005.6(0.4/3h) 15 7/8 -- --
09:00 1.1 1.1 0.5 NNO 1.9 5.6 7.4 96 1005.3(0.4/3h) 14 6/8 -- --
08:00 0.2 0.2 -0.5 NNO 1.9 3.7 3.7 95 1005.5(0.7/3h) 14 6/8 -- --
07:00 0.0 0.0 -0.7 NNO 1.9 5.6 5.6 95 1005.2(0.5/3h) 16 6/8 -- --
06:00 0.1 0.1 -0.7 SO 3.7 9.3 11.1 94 1005(0.3/3h) 18 2/8 0/0h
--
05:00 0.4 0.4 -0.5 SSO 3.7 5.6 5.6 94 1004.7(0.3/3h) 20 2/8 -- --
04:00 1.1 -0.6 -0.3 SO 5.6 5.6 7.4 90 1004.7(0.6/3h) 20 2/8 -- --
03:00 0.8 -0.9 -0.8 SO 5.6 9.3 11.1 89 1004.7(0.7/3h) 20 2/8 -- --
02:00 2.8 0.7 0.6 O 7.4 7.4 11.1 85 1004.3(1.2/3h) 20 2/8 -- --
01:00 1.7 0.1 0.4 SO 5.6 9.3 11.1 91 1004.2(1.2/3h) 20 2/8 -- --
00:00 5.0 3.3 0.8 O 7.4 9.3 13.0 74 1003.7(1.3/3h) 20 2/8 trace/6h
--

1 Coordinated Universal Time. Actuellement il est 02:00 locale et 00:00 UTC.

2 Le vent souffle depuis la direction indiquée vers la direction oposée.

3 Les rafales max. sont disponible 40 min après l'heure du relevé.

4 Pour les stations d'altitude (plus de 600m) le géopotentiel du niveau le plus proche de la pression obligatoire est indiqué.

5 Les stations disposant d'un diffuseur peuvent indiquer "trace". Cela signifie que des précipitations ont touchés le sol mais que la quantité est inférieure à 0.1 mm.

Récapitulatif de la journée
Température [°C] Vent [km/h] Ensoleillement4 [h] Precipitations totale5 [mm] Pression [Hpa]
Min1 Max.2 Moy.3 Max. Min Max.
0.1 8.6 6.1 13.0 0 h 0 min 0 1003.5 1005.7

1 Température minimale relevée entre 18:00 UTC la veille et 18:00 UTC le jour donné.

2 Température maximale relevée entre 06:00 UTC le jour donné et 06:00 UTC le lendemain.

3 Vent moyen de la journée basé sur les relevés horaires.

4 Ensoleillement en heures relevé entre 06:00 UTC la veille et 06:00 UTC le jour donné.

5 Précipitations totales tombées entre 06:00 UTC la jour donné et 06:00 UTC le lendemain.

Graphiques horaires